sensor_id;sensor_type;location;lat;lon;timestamp;pressure;altitude;pressure_sealevel;temperature;humidity
12626;BME280;6378;42.684;23.372;2023-12-20T00:02:12;95499.72;;;2.04;100.00
12626;BME280;6378;42.684;23.372;2023-12-20T00:04:37;95504.22;;;2.03;100.00
12626;BME280;6378;42.684;23.372;2023-12-20T00:07:03;95497.84;;;2.04;100.00
12626;BME280;6378;42.684;23.372;2023-12-20T00:09:28;95496.50;;;2.07;100.00
12626;BME280;6378;42.684;23.372;2023-12-20T00:11:54;95487.88;;;1.91;100.00
12626;BME280;6378;42.684;23.372;2023-12-20T00:14:19;95496.34;;;1.93;100.00
12626;BME280;6378;42.684;23.372;2023-12-20T00:16:45;95492.25;;;1.77;100.00
12626;BME280;6378;42.684;23.372;2023-12-20T00:19:11;95484.66;;;1.65;100.00
12626;BME280;6378;42.684;23.372;2023-12-20T00:21:36;95493.50;;;1.56;100.00
12626;BME280;6378;42.684;23.372;2023-12-20T00:24:02;95477.44;;;1.37;100.00
12626;BME280;6378;42.684;23.372;2023-12-20T00:26:27;95482.38;;;1.10;100.00
12626;BME280;6378;42.684;23.372;2023-12-20T00:28:53;95479.84;;;0.90;100.00
12626;BME280;6378;42.684;23.372;2023-12-20T00:31:19;95467.72;;;0.73;100.00
12626;BME280;6378;42.684;23.372;2023-12-20T00:33:44;95467.69;;;0.24;100.00
12626;BME280;6378;42.684;23.372;2023-12-20T00:36:11;95473.28;;;0.08;100.00
12626;BME280;6378;42.684;23.372;2023-12-20T00:38:36;95466.16;;;-0.12;100.00
12626;BME280;6378;42.684;23.372;2023-12-20T00:41:02;95469.34;;;-0.15;100.00
12626;BME280;6378;42.684;23.372;2023-12-20T00:43:28;95462.75;;;-0.23;100.00
12626;BME280;6378;42.684;23.372;2023-12-20T00:45:53;95429.19;;;-0.48;100.00
12626;BME280;6378;42.684;23.372;2023-12-20T00:48:19;95460.09;;;-0.38;100.00
12626;BME280;6378;42.684;23.372;2023-12-20T00:50:44;95444.25;;;-0.38;100.00
12626;BME280;6378;42.684;23.372;2023-12-20T00:53:10;95447.19;;;-0.39;100.00
12626;BME280;6378;42.684;23.372;2023-12-20T00:55:35;95444.78;;;-0.46;100.00
12626;BME280;6378;42.684;23.372;2023-12-20T00:58:01;95442.94;;;-0.40;100.00
12626;BME280;6378;42.684;23.372;2023-12-20T01:00:26;95425.22;;;-0.55;100.00
12626;BME280;6378;42.684;23.372;2023-12-20T01:02:52;95440.28;;;-0.46;100.00
12626;BME280;6378;42.684;23.372;2023-12-20T01:05:18;95443.19;;;-0.37;100.00
12626;BME280;6378;42.684;23.372;2023-12-20T01:07:44;95432.13;;;-0.54;100.00
12626;BME280;6378;42.684;23.372;2023-12-20T01:10:10;95430.53;;;-0.50;100.00
12626;BME280;6378;42.684;23.372;2023-12-20T01:12:36;95422.59;;;-0.60;100.00
12626;BME280;6378;42.684;23.372;2023-12-20T01:15:02;95431.56;;;-0.61;100.00
12626;BME280;6378;42.684;23.372;2023-12-20T01:17:27;95421.00;;;-0.56;100.00
12626;BME280;6378;42.684;23.372;2023-12-20T01:19:53;95424.44;;;-0.56;100.00
12626;BME280;6378;42.684;23.372;2023-12-20T01:22:19;95431.56;;;-0.61;100.00
12626;BME280;6378;42.684;23.372;2023-12-20T01:24:44;95420.50;;;-0.78;100.00
12626;BME280;6378;42.684;23.372;2023-12-20T01:27:09;95387.97;;;-0.89;100.00
12626;BME280;6378;42.684;23.372;2023-12-20T01:29:35;95406.47;;;-0.84;100.00
12626;BME280;6378;42.684;23.372;2023-12-20T01:32:00;95409.38;;;-1.01;100.00
12626;BME280;6378;42.684;23.372;2023-12-20T01:34:26;95402.50;;;-1.02;100.00
12626;BME280;6378;42.684;23.372;2023-12-20T01:36:51;95406.97;;;-0.97;100.00
12626;BME280;6378;42.684;23.372;2023-12-20T01:39:17;95414.91;;;-0.92;100.00
12626;BME280;6378;42.684;23.372;2023-12-20T01:41:43;95410.72;;;-0.88;100.00
12626;BME280;6378;42.684;23.372;2023-12-20T01:44:08;95391.13;;;-0.87;100.00
12626;BME280;6378;42.684;23.372;2023-12-20T01:46:34;95382.97;;;-0.96;100.00
12626;BME280;6378;42.684;23.372;2023-12-20T01:49:00;95378.72;;;-1.02;100.00
12626;BME280;6378;42.684;23.372;2023-12-20T01:51:26;95351.00;;;-1.19;100.00
12626;BME280;6378;42.684;23.372;2023-12-20T01:53:54;95356.53;;;-1.16;100.00
12626;BME280;6378;42.684;23.372;2023-12-20T01:56:20;95351.00;;;-1.09;100.00
12626;BME280;6378;42.684;23.372;2023-12-20T01:58:47;95373.72;;;-0.93;100.00
12626;BME280;6378;42.684;23.372;2023-12-20T02:01:13;95373.44;;;-1.02;100.00
12626;BME280;6378;42.684;23.372;2023-12-20T02:03:42;95342.53;;;-1.16;100.00
12626;BME280;6378;42.684;23.372;2023-12-20T02:06:08;95360.75;;;-1.05;100.00
12626;BME280;6378;42.684;23.372;2023-12-20T02:08:34;95362.63;;;-0.95;100.00
12626;BME280;6378;42.684;23.372;2023-12-20T02:11:01;95358.38;;;-1.11;100.00
12626;BME280;6378;42.684;23.372;2023-12-20T02:13:26;95354.44;;;-1.09;100.00
12626;BME280;6378;42.684;23.372;2023-12-20T02:15:52;95354.16;;;-1.27;100.00
12626;BME280;6378;42.684;23.372;2023-12-20T02:18:18;95349.41;;;-1.25;100.00
12626;BME280;6378;42.684;23.372;2023-12-20T02:20:43;95343.59;;;-1.22;100.00
12626;BME280;6378;42.684;23.372;2023-12-20T02:23:09;95333.28;;;-1.29;100.00
12626;BME280;6378;42.684;23.372;2023-12-20T02:25:34;95344.66;;;-1.28;100.00
12626;BME280;6378;42.684;23.372;2023-12-20T02:28:00;95344.09;;;-1.31;100.00
12626;BME280;6378;42.684;23.372;2023-12-20T02:30:26;95345.69;;;-1.29;100.00
12626;BME280;6378;42.684;23.372;2023-12-20T02:32:52;95322.72;;;-1.39;100.00
12626;BME280;6378;42.684;23.372;2023-12-20T02:35:18;95334.34;;;-1.20;100.00
12626;BME280;6378;42.684;23.372;2023-12-20T02:37:44;95300.81;;;-1.29;100.00
12626;BME280;6378;42.684;23.372;2023-12-20T02:40:09;95334.34;;;-1.05;100.00
12626;BME280;6378;42.684;23.372;2023-12-20T02:42:35;95327.47;;;-1.06;100.00
12626;BME280;6378;42.684;23.372;2023-12-20T02:45:01;95330.66;;;-0.99;100.00
12626;BME280;6378;42.684;23.372;2023-12-20T02:47:26;95323.00;;;-1.00;100.00
12626;BME280;6378;42.684;23.372;2023-12-20T02:49:52;95323.00;;;-1.05;100.00
12626;BME280;6378;42.684;23.372;2023-12-20T02:52:18;95326.16;;;-1.08;100.00
12626;BME280;6378;42.684;23.372;2023-12-20T02:54:43;95313.47;;;-1.11;100.00
12626;BME280;6378;42.684;23.372;2023-12-20T02:57:09;95311.38;;;-1.14;100.00
12626;BME280;6378;42.684;23.372;2023-12-20T02:59:34;95326.16;;;-0.93;100.00
12626;BME280;6378;42.684;23.372;2023-12-20T03:02:00;95292.09;;;-1.15;100.00
12626;BME280;6378;42.684;23.372;2023-12-20T03:04:25;95317.72;;;-1.00;100.00
12626;BME280;6378;42.684;23.372;2023-12-20T03:06:51;95321.63;;;-0.82;100.00
12626;BME280;6378;42.684;23.372;2023-12-20T03:09:16;95278.63;;;-1.08;100.00
12626;BME280;6378;42.684;23.372;2023-12-20T03:11:42;95318.97;;;-0.72;100.00
12626;BME280;6378;42.684;23.372;2023-12-20T03:14:07;95316.09;;;-0.71;100.00
12626;BME280;6378;42.684;23.372;2023-12-20T03:16:33;95270.41;;;-0.97;100.00
12626;BME280;6378;42.684;23.372;2023-12-20T03:18:58;95314.22;;;-0.65;100.00
12626;BME280;6378;42.684;23.372;2023-12-20T03:21:24;95301.56;;;-0.73;100.00
12626;BME280;6378;42.684;23.372;2023-12-20T03:23:49;95304.97;;;-0.73;100.00
12626;BME280;6378;42.684;23.372;2023-12-20T03:26:15;95305.25;;;-0.69;100.00
12626;BME280;6378;42.684;23.372;2023-12-20T03:28:40;95289.13;;;-0.78;100.00
12626;BME280;6378;42.684;23.372;2023-12-20T03:31:06;95295.75;;;-0.70;100.00
12626;BME280;6378;42.684;23.372;2023-12-20T03:33:31;95268.78;;;-0.77;100.00
12626;BME280;6378;42.684;23.372;2023-12-20T03:35:57;95273.81;;;-0.81;100.00
12626;BME280;6378;42.684;23.372;2023-12-20T03:38:22;95313.72;;;-0.77;100.00
12626;BME280;6378;42.684;23.372;2023-12-20T03:40:51;95303.41;;;-0.74;100.00
12626;BME280;6378;42.684;23.372;2023-12-20T03:43:16;95300.00;;;-0.79;100.00
12626;BME280;6378;42.684;23.372;2023-12-20T03:45:42;95302.06;;;-0.61;100.00
12626;BME280;6378;42.684;23.372;2023-12-20T03:48:08;95276.50;;;-0.96;100.00
12626;BME280;6378;42.684;23.372;2023-12-20T03:50:34;95314.00;;;-0.74;100.00
12626;BME280;6378;42.684;23.372;2023-12-20T03:53:00;95295.75;;;-0.75;100.00
12626;BME280;6378;42.684;23.372;2023-12-20T03:55:25;95295.22;;;-0.82;100.00
12626;BME280;6378;42.684;23.372;2023-12-20T03:57:51;95298.66;;;-0.82;100.00
12626;BME280;6378;42.684;23.372;2023-12-20T04:00:17;95290.47;;;-0.91;100.00
12626;BME280;6378;42.684;23.372;2023-12-20T04:02:42;95271.50;;;-1.03;100.00
12626;BME280;6378;42.684;23.372;2023-12-20T04:05:09;95285.47;;;-0.97;100.00
12626;BME280;6378;42.684;23.372;2023-12-20T04:07:35;95275.41;;;-0.85;100.00
12626;BME280;6378;42.684;23.372;2023-12-20T04:10:01;95288.09;;;-0.82;100.00
12626;BME280;6378;42.684;23.372;2023-12-20T04:12:30;95260.38;;;-0.95;100.00
12626;BME280;6378;42.684;23.372;2023-12-20T04:14:57;95279.38;;;-0.82;100.00
12626;BME280;6378;42.684;23.372;2023-12-20T04:17:22;95266.19;;;-0.98;100.00
12626;BME280;6378;42.684;23.372;2023-12-20T04:19:51;95281.19;;;-0.78;100.00
12626;BME280;6378;42.684;23.372;2023-12-20T04:22:17;95278.84;;;-0.79;100.00
12626;BME280;6378;42.684;23.372;2023-12-20T04:24:43;95277.28;;;-0.85;100.00
12626;BME280;6378;42.684;23.372;2023-12-20T04:27:08;95256.94;;;-0.95;100.00
12626;BME280;6378;42.684;23.372;2023-12-20T04:29:34;95275.19;;;-1.04;100.00
12626;BME280;6378;42.684;23.372;2023-12-20T04:31:59;95260.66;;;-1.11;100.00
12626;BME280;6378;42.684;23.372;2023-12-20T04:34:25;95269.66;;;-1.27;100.00
12626;BME280;6378;42.684;23.372;2023-12-20T04:36:51;95258.31;;;-1.28;100.00
12626;BME280;6378;42.684;23.372;2023-12-20T04:39:16;95252.25;;;-1.39;100.00
12626;BME280;6378;42.684;23.372;2023-12-20T04:41:42;95260.66;;;-1.32;100.00
12626;BME280;6378;42.684;23.372;2023-12-20T04:44:07;95255.94;;;-1.24;100.00
12626;BME280;6378;42.684;23.372;2023-12-20T04:46:33;95264.63;;;-1.19;100.00
12626;BME280;6378;42.684;23.372;2023-12-20T04:48:58;95257.53;;;-1.28;100.00
12626;BME280;6378;42.684;23.372;2023-12-20T04:51:24;95228.22;;;-1.52;100.00
12626;BME280;6378;42.684;23.372;2023-12-20T04:53:49;95248.00;;;-1.24;100.00
12626;BME280;6378;42.684;23.372;2023-12-20T04:56:15;95245.38;;;-1.40;100.00
12626;BME280;6378;42.684;23.372;2023-12-20T04:58:42;95257.78;;;-1.30;100.00
12626;BME280;6378;42.684;23.372;2023-12-20T05:01:08;95251.69;;;-1.36;100.00
12626;BME280;6378;42.684;23.372;2023-12-20T05:03:34;95250.41;;;-1.33;100.00
12626;BME280;6378;42.684;23.372;2023-12-20T05:06:00;95241.13;;;-1.25;100.00
12626;BME280;6378;42.684;23.372;2023-12-20T05:08:25;95247.22;;;-1.35;100.00
12626;BME280;6378;42.684;23.372;2023-12-20T05:10:54;95202.34;;;-1.65;100.00
12626;BME280;6378;42.684;23.372;2023-12-20T05:13:19;95237.19;;;-1.28;100.00
12626;BME280;6378;42.684;23.372;2023-12-20T05:15:45;95196.81;;;-1.59;100.00
12626;BME280;6378;42.684;23.372;2023-12-20T05:18:10;95244.31;;;-1.23;100.00
12626;BME280;6378;42.684;23.372;2023-12-20T05:20:36;95233.22;;;-1.20;100.00
12626;BME280;6378;42.684;23.372;2023-12-20T05:23:02;95236.41;;;-1.23;100.00
12626;BME280;6378;42.684;23.372;2023-12-20T05:25:28;95228.72;;;-1.20;100.00
12626;BME280;6378;42.684;23.372;2023-12-20T05:27:53;95236.38;;;-1.08;100.00
12626;BME280;6378;42.684;23.372;2023-12-20T05:30:19;95203.94;;;-1.39;100.00
12626;BME280;6378;42.684;23.372;2023-12-20T05:32:44;95228.19;;;-1.17;100.00
12626;BME280;6378;42.684;23.372;2023-12-20T05:35:10;95226.31;;;-1.06;100.00
12626;BME280;6378;42.684;23.372;2023-12-20T05:37:35;95226.31;;;-1.06;100.00
12626;BME280;6378;42.684;23.372;2023-12-20T05:40:01;95222.59;;;-0.95;100.00
12626;BME280;6378;42.684;23.372;2023-12-20T05:42:26;95217.06;;;-0.89;100.00
12626;BME280;6378;42.684;23.372;2023-12-20T05:44:51;95224.66;;;-0.82;100.00
12626;BME280;6378;42.684;23.372;2023-12-20T05:47:17;95222.03;;;-0.82;100.00
12626;BME280;6378;42.684;23.372;2023-12-20T05:49:43;95215.69;;;-0.76;100.00
12626;BME280;6378;42.684;23.372;2023-12-20T05:52:09;95219.13;;;-0.75;100.00
12626;BME280;6378;42.684;23.372;2023-12-20T05:54:34;95212.47;;;-0.68;100.00
12626;BME280;6378;42.684;23.372;2023-12-20T05:57:00;95199.75;;;-0.56;100.00
12626;BME280;6378;42.684;23.372;2023-12-20T05:59:26;95200.28;;;-0.59;100.00
12626;BME280;6378;42.684;23.372;2023-12-20T06:01:51;95195.00;;;-0.59;100.00
12626;BME280;6378;42.684;23.372;2023-12-20T06:04:17;95165.22;;;-0.74;100.00
12626;BME280;6378;42.684;23.372;2023-12-20T06:06:42;95200.72;;;-0.41;100.00
12626;BME280;6378;42.684;23.372;2023-12-20T06:09:08;95139.03;;;-0.76;100.00
12626;BME280;6378;42.684;23.372;2023-12-20T06:11:34;95195.38;;;-0.26;100.00
12626;BME280;6378;42.684;23.372;2023-12-20T06:13:59;95176.34;;;-0.28;100.00
12626;BME280;6378;42.684;23.372;2023-12-20T06:16:25;95204.00;;;-0.06;100.00
12626;BME280;6378;42.684;23.372;2023-12-20T06:18:50;95184.78;;;-0.26;100.00
12626;BME280;6378;42.684;23.372;2023-12-20T06:21:16;95186.31;;;-0.15;100.00
12626;BME280;6378;42.684;23.372;2023-12-20T06:23:41;95204.50;;;-0.04;100.00
12626;BME280;6378;42.684;23.372;2023-12-20T06:26:07;95209.97;;;0.05;100.00
12626;BME280;6378;42.684;23.372;2023-12-20T06:28:32;95208.84;;;0.16;100.00
12626;BME280;6378;42.684;23.372;2023-12-20T06:30:58;95208.88;;;0.11;100.00
12626;BME280;6378;42.684;23.372;2023-12-20T06:33:24;95202.50;;;0.17;100.00
12626;BME280;6378;42.684;23.372;2023-12-20T06:35:49;95213.63;;;0.19;100.00
12626;BME280;6378;42.684;23.372;2023-12-20T06:38:15;95188.25;;;0.13;100.00
12626;BME280;6378;42.684;23.372;2023-12-20T06:40:40;95201.41;;;0.23;100.00
12626;BME280;6378;42.684;23.372;2023-12-20T06:43:07;95181.94;;;0.09;100.00
12626;BME280;6378;42.684;23.372;2023-12-20T06:45:33;95203.50;;;0.26;100.00
12626;BME280;6378;42.684;23.372;2023-12-20T06:47:58;95190.00;;;0.28;100.00
12626;BME280;6378;42.684;23.372;2023-12-20T06:50:24;95147.09;;;-0.08;100.00
12626;BME280;6378;42.684;23.372;2023-12-20T06:52:50;95178.94;;;0.16;100.00
12626;BME280;6378;42.684;23.372;2023-12-20T06:55:15;95179.72;;;0.21;100.00
12626;BME280;6378;42.684;23.372;2023-12-20T06:57:40;95186.44;;;0.09;100.00
12626;BME280;6378;42.684;23.372;2023-12-20T07:00:06;95177.66;;;0.13;100.00
12626;BME280;6378;42.684;23.372;2023-12-20T07:02:33;95188.25;;;0.13;100.00
12626;BME280;6378;42.684;23.372;2023-12-20T07:04:59;95177.78;;;-0.07;100.00
12626;BME280;6378;42.684;23.372;2023-12-20T07:07:25;95170.50;;;0.14;100.00
12626;BME280;6378;42.684;23.372;2023-12-20T07:09:51;95128.56;;;-0.03;100.00
12626;BME280;6378;42.684;23.372;2023-12-20T07:12:17;95135.25;;;0.52;100.00
12626;BME280;6378;42.684;23.372;2023-12-20T07:14:45;95158.41;;;0.65;100.00
12626;BME280;6378;42.684;23.372;2023-12-20T07:17:11;95169.31;;;0.59;100.00
12626;BME280;6378;42.684;23.372;2023-12-20T07:19:39;95162.19;;;0.59;100.00
12626;BME280;6378;42.684;23.372;2023-12-20T07:22:05;95132.13;;;0.45;100.00
12626;BME280;6378;42.684;23.372;2023-12-20T07:24:31;95164.28;;;0.62;100.00
12626;BME280;6378;42.684;23.372;2023-12-20T07:26:57;95137.16;;;0.47;100.00
12626;BME280;6378;42.684;23.372;2023-12-20T07:29:22;95118.84;;;0.21;100.00
12626;BME280;6378;42.684;23.372;2023-12-20T07:31:48;95117.28;;;0.15;100.00
12626;BME280;6378;42.684;23.372;2023-12-20T07:34:13;95157.41;;;0.61;100.00
12626;BME280;6378;42.684;23.372;2023-12-20T07:36:39;95156.59;;;0.61;100.00
12626;BME280;6378;42.684;23.372;2023-12-20T07:39:04;95142.22;;;0.43;100.00
12626;BME280;6378;42.684;23.372;2023-12-20T07:41:30;95154.47;;;0.63;100.00
12626;BME280;6378;42.684;23.372;2023-12-20T07:43:55;95137.75;;;0.67;100.00
12626;BME280;6378;42.684;23.372;2023-12-20T07:46:22;95145.44;;;0.64;100.00
12626;BME280;6378;42.684;23.372;2023-12-20T07:48:48;95147.28;;;0.68;100.00
12626;BME280;6378;42.684;23.372;2023-12-20T07:51:14;95109.09;;;0.46;100.00
12626;BME280;6378;42.684;23.372;2023-12-20T07:53:39;95116.94;;;0.56;100.00
12626;BME280;6378;42.684;23.372;2023-12-20T07:56:16;95124.31;;;0.59;100.00
12626;BME280;6378;42.684;23.372;2023-12-20T07:58:42;95128.97;;;0.72;100.00
12626;BME280;6378;42.684;23.372;2023-12-20T08:01:08;95125.84;;;0.65;100.00
12626;BME280;6378;42.684;23.372;2023-12-20T08:03:33;95148.09;;;0.64;100.00
12626;BME280;6378;42.684;23.372;2023-12-20T08:05:59;95137.09;;;0.52;100.00
12626;BME280;6378;42.684;23.372;2023-12-20T08:08:25;95139.22;;;0.50;100.00
12626;BME280;6378;42.684;23.372;2023-12-20T08:10:50;95133.34;;;0.58;100.00
12626;BME280;6378;42.684;23.372;2023-12-20T08:13:16;95148.16;;;0.88;100.00
12626;BME280;6378;42.684;23.372;2023-12-20T08:15:41;95134.84;;;0.93;100.00
12626;BME280;6378;42.684;23.372;2023-12-20T08:18:07;95127.28;;;0.81;100.00
12626;BME280;6378;42.684;23.372;2023-12-20T08:20:32;95124.28;;;0.88;100.00
12626;BME280;6378;42.684;23.372;2023-12-20T08:22:58;95120.81;;;0.92;100.00
12626;BME280;6378;42.684;23.372;2023-12-20T08:25:23;95114.91;;;1.19;100.00
12626;BME280;6378;42.684;23.372;2023-12-20T08:27:49;95134.94;;;1.06;100.00
12626;BME280;6378;42.684;23.372;2023-12-20T08:30:14;95115.13;;;0.99;100.00
12626;BME280;6378;42.684;23.372;2023-12-20T08:32:42;95093.72;;;0.95;100.00
12626;BME280;6378;42.684;23.372;2023-12-20T08:35:07;95106.34;;;1.03;100.00
12626;BME280;6378;42.684;23.372;2023-12-20T08:37:34;95084.84;;;0.86;100.00
12626;BME280;6378;42.684;23.372;2023-12-20T08:39:59;95097.25;;;1.09;100.00
12626;BME280;6378;42.684;23.372;2023-12-20T08:42:25;95083.66;;;0.97;100.00
12626;BME280;6378;42.684;23.372;2023-12-20T08:44:56;95081.94;;;1.06;100.00
12626;BME280;6378;42.684;23.372;2023-12-20T08:47:21;95094.13;;;1.07;100.00
12626;BME280;6378;42.684;23.372;2023-12-20T08:49:47;95077.81;;;0.95;100.00
12626;BME280;6378;42.684;23.372;2023-12-20T08:52:12;95093.63;;;0.81;100.00
12626;BME280;6378;42.684;23.372;2023-12-20T08:54:38;95070.22;;;0.65;100.00
12626;BME280;6378;42.684;23.372;2023-12-20T08:57:04;95068.69;;;0.59;100.00
12626;BME280;6378;42.684;23.372;2023-12-20T08:59:32;95090.34;;;0.90;100.00
12626;BME280;6378;42.684;23.372;2023-12-20T09:01:57;95076.81;;;0.91;100.00
12626;BME280;6378;42.684;23.372;2023-12-20T09:04:23;95051.50;;;0.80;100.00
12626;BME280;6378;42.684;23.372;2023-12-20T09:06:48;95063.88;;;1.08;100.00
12626;BME280;6378;42.684;23.372;2023-12-20T09:09:14;95056.31;;;1.20;100.00
12626;BME280;6378;42.684;23.372;2023-12-20T09:11:40;95047.91;;;1.32;100.00
12626;BME280;6378;42.684;23.372;2023-12-20T09:14:05;95038.63;;;1.35;100.00
12626;BME280;6378;42.684;23.372;2023-12-20T09:16:31;95028.88;;;1.30;100.00
12626;BME280;6378;42.684;23.372;2023-12-20T09:18:59;95024.00;;;1.37;100.00
12626;BME280;6378;42.684;23.372;2023-12-20T09:21:24;95009.97;;;1.37;100.00
12626;BME280;6378;42.684;23.372;2023-12-20T09:23:50;95015.03;;;1.33;100.00
12626;BME280;6378;42.684;23.372;2023-12-20T09:26:16;95006.16;;;1.24;100.00
12626;BME280;6378;42.684;23.372;2023-12-20T09:28:41;95013.75;;;1.12;100.00
12626;BME280;6378;42.684;23.372;2023-12-20T09:31:07;95011.25;;;1.20;100.00
12626;BME280;6378;42.684;23.372;2023-12-20T09:33:33;94996.34;;;1.06;100.00
12626;BME280;6378;42.684;23.372;2023-12-20T09:35:59;94960.19;;;0.96;100.00
12626;BME280;6378;42.684;23.372;2023-12-20T09:38:25;94998.47;;;1.22;100.00
12626;BME280;6378;42.684;23.372;2023-12-20T09:40:50;94985.06;;;1.33;100.00
12626;BME280;6378;42.684;23.372;2023-12-20T09:43:18;94961.59;;;1.26;100.00
12626;BME280;6378;42.684;23.372;2023-12-20T09:45:46;94962.75;;;1.20;100.00
12626;BME280;6378;42.684;23.372;2023-12-20T09:48:12;94980.13;;;1.45;100.00
12626;BME280;6378;42.684;23.372;2023-12-20T09:50:40;94953.50;;;1.36;100.00
12626;BME280;6378;42.684;23.372;2023-12-20T09:53:08;94967.75;;;1.40;100.00
12626;BME280;6378;42.684;23.372;2023-12-20T09:55:36;94927.09;;;1.45;100.00
12626;BME280;6378;42.684;23.372;2023-12-20T09:58:02;94953.78;;;1.67;100.00
12626;BME280;6378;42.684;23.372;2023-12-20T10:00:27;94959.06;;;1.67;100.00
12626;BME280;6378;42.684;23.372;2023-12-20T10:03:02;94953.69;;;1.72;100.00
12626;BME280;6378;42.684;23.372;2023-12-20T10:05:33;94845.22;;;1.11;100.00
12626;BME280;6378;42.684;23.372;2023-12-20T10:08:00;94888.41;;;1.44;100.00
12626;BME280;6378;42.684;23.372;2023-12-20T10:10:26;94946.72;;;1.76;100.00
12626;BME280;6378;42.684;23.372;2023-12-20T10:15:28;94895.66;;;2.11;100.00
12626;BME280;6378;42.684;23.372;2023-12-20T10:17:53;94890.06;;;2.13;100.00
12626;BME280;6378;42.684;23.372;2023-12-20T10:20:20;94920.56;;;2.29;100.00
12626;BME280;6378;42.684;23.372;2023-12-20T10:22:46;94903.13;;;2.37;100.00
12626;BME280;6378;42.684;23.372;2023-12-20T10:25:12;94866.94;;;2.13;100.00
12626;BME280;6378;42.684;23.372;2023-12-20T10:27:37;94887.28;;;2.32;100.00
12626;BME280;6378;42.684;23.372;2023-12-20T10:30:03;94859.16;;;2.31;100.00
12626;BME280;6378;42.684;23.372;2023-12-20T10:32:30;94873.09;;;2.50;100.00
12626;BME280;6378;42.684;23.372;2023-12-20T10:34:55;94834.94;;;2.46;100.00
12626;BME280;6378;42.684;23.372;2023-12-20T10:37:22;94882.94;;;2.63;100.00
12626;BME280;6378;42.684;23.372;2023-12-20T10:39:52;94886.44;;;2.72;100.00
12626;BME280;6378;42.684;23.372;2023-12-20T10:42:27;94877.97;;;2.70;100.00
12626;BME280;6378;42.684;23.372;2023-12-20T10:44:54;94871.66;;;2.80;100.00
12626;BME280;6378;42.684;23.372;2023-12-20T10:47:20;94840.81;;;2.56;100.00
12626;BME280;6378;42.684;23.372;2023-12-20T10:49:46;94853.09;;;2.88;100.00
12626;BME280;6378;42.684;23.372;2023-12-20T10:52:12;94850.94;;;2.90;100.00
12626;BME280;6378;42.684;23.372;2023-12-20T10:54:41;94849.19;;;3.08;100.00
12626;BME280;6378;42.684;23.372;2023-12-20T10:57:07;94868.34;;;3.19;100.00
12626;BME280;6378;42.684;23.372;2023-12-20T10:59:33;94850.88;;;3.04;100.00
12626;BME280;6378;42.684;23.372;2023-12-20T11:02:03;94833.75;;;2.88;100.00
12626;BME280;6378;42.684;23.372;2023-12-20T11:04:53;94826.53;;;2.88;100.00
12626;BME280;6378;42.684;23.372;2023-12-20T11:07:50;94808.22;;;3.09;100.00
12626;BME280;6378;42.684;23.372;2023-12-20T11:10:20;94818.78;;;3.23;100.00
12626;BME280;6378;42.684;23.372;2023-12-20T11:13:06;94817.13;;;3.27;100.00
12626;BME280;6378;42.684;23.372;2023-12-20T11:15:38;94814.22;;;3.37;100.00
12626;BME280;6378;42.684;23.372;2023-12-20T11:18:05;94795.16;;;3.52;100.00
12626;BME280;6378;42.684;23.372;2023-12-20T11:20:39;94800.28;;;3.71;100.00
12626;BME280;6378;42.684;23.372;2023-12-20T11:23:05;94769.94;;;3.41;100.00
12626;BME280;6378;42.684;23.372;2023-12-20T11:25:53;94793.38;;;3.70;100.00
12626;BME280;6378;42.684;23.372;2023-12-20T11:28:24;94772.91;;;3.87;100.00
12626;BME280;6378;42.684;23.372;2023-12-20T11:30:54;94765.16;;;3.60;100.00
12626;BME280;6378;42.684;23.372;2023-12-20T11:33:25;94765.03;;;3.65;100.00
12626;BME280;6378;42.684;23.372;2023-12-20T11:35:51;94751.88;;;3.60;100.00
12626;BME280;6378;42.684;23.372;2023-12-20T11:38:17;94757.19;;;3.60;100.00
12626;BME280;6378;42.684;23.372;2023-12-20T11:40:48;94744.56;;;3.74;100.00
12626;BME280;6378;42.684;23.372;2023-12-20T11:43:32;94724.72;;;3.41;100.00
12626;BME280;6378;42.684;23.372;2023-12-20T11:46:07;94700.63;;;2.76;100.00
12626;BME280;6378;42.684;23.372;2023-12-20T11:48:36;94738.56;;;3.21;100.00
12626;BME280;6378;42.684;23.372;2023-12-20T11:51:02;94723.78;;;3.06;100.00
12626;BME280;6378;42.684;23.372;2023-12-20T11:53:29;94720.22;;;2.88;100.00
12626;BME280;6378;42.684;23.372;2023-12-20T11:55:56;94726.06;;;2.68;100.00
12626;BME280;6378;42.684;23.372;2023-12-20T11:58:22;94725.34;;;2.54;100.00
12626;BME280;6378;42.684;23.372;2023-12-20T12:00:49;94707.00;;;2.30;100.00
12626;BME280;6378;42.684;23.372;2023-12-20T12:03:15;94692.59;;;2.23;100.00
12626;BME280;6378;42.684;23.372;2023-12-20T12:05:41;94703.28;;;2.31;100.00
12626;BME280;6378;42.684;23.372;2023-12-20T12:08:06;94667.25;;;2.16;100.00
12626;BME280;6378;42.684;23.372;2023-12-20T12:10:33;94702.25;;;2.41;100.00
12626;BME280;6378;42.684;23.372;2023-12-20T12:12:59;94701.28;;;2.37;100.00
12626;BME280;6378;42.684;23.372;2023-12-20T12:15:25;94614.00;;;1.77;100.00
12626;BME280;6378;42.684;23.372;2023-12-20T12:17:54;94692.19;;;2.29;100.00
12626;BME280;6378;42.684;23.372;2023-12-20T12:20:21;94686.44;;;2.36;100.00
12626;BME280;6378;42.684;23.372;2023-12-20T12:23:04;94689.75;;;2.41;100.00
12626;BME280;6378;42.684;23.372;2023-12-20T12:25:32;94598.69;;;1.96;100.00
12626;BME280;6378;42.684;23.372;2023-12-20T12:27:58;94677.75;;;2.66;100.00
12626;BME280;6378;42.684;23.372;2023-12-20T12:30:23;94641.75;;;2.60;100.00
12626;BME280;6378;42.684;23.372;2023-12-20T12:32:50;94678.31;;;2.85;100.00
12626;BME280;6378;42.684;23.372;2023-12-20T12:35:17;94672.31;;;3.02;100.00
12626;BME280;6378;42.684;23.372;2023-12-20T12:37:43;94676.31;;;3.22;100.00
12626;BME280;6378;42.684;23.372;2023-12-20T12:40:13;94667.84;;;3.20;100.00
12626;BME280;6378;42.684;23.372;2023-12-20T12:42:39;94659.53;;;3.13;100.00
12626;BME280;6378;42.684;23.372;2023-12-20T12:45:05;94668.75;;;3.15;100.00
12626;BME280;6378;42.684;23.372;2023-12-20T12:47:31;94627.16;;;2.80;100.00
12626;BME280;6378;42.684;23.372;2023-12-20T12:49:56;94646.81;;;2.70;100.00
12626;BME280;6378;42.684;23.372;2023-12-20T12:52:22;94650.56;;;2.69;100.00
12626;BME280;6378;42.684;23.372;2023-12-20T12:54:48;94659.19;;;2.44;100.00